Dunlap Lake, Illinois
Current Conditions -  °F | °C
As of 1:50 PM on Thursday 29 Jan 2015 (Local Time) from KALN Reporting Station
Overcast Overcast  
Wind Chill: 31°   Ceiling: 2200
Heat Index: 39°   Visibility: 7mi
Dew Point: 32°   Wind: 14mph
Humidity: 75%   Direction: 290°WNW
Pressure: 30.17"   Gusts: 24mph
Location:  38.8031°N, 89.9742°W
Report Text: KALN 291950Z 29012G21KT 7SM OVC022 04/00 A3017
Loading
Personal Weather Stations






























Interactive Weather Map New forecast layout! Learn more

10-Day Weather Forecast

Advertisements
Track Severe Weather on mobile